Airfield :
LOGIN :

Register | Disclaimer

   EN    FR    IT 

 










Legend :    VFR   Marginal VFR   IFR   Intensive IFR   Very Intensive IFR
Visi :
Ceiling :
>= 8 km
>= 3000ft
5 to 8 km
1000 to 3000 ft
1500m to 5 km
500 to 1000 ft
800 to 1500m
200 to 500 ft
< 800m
< 200 ft
Symbols :   Thunderstorms  Fog  Heavy snow  Heavy precipitations  Wind > 20 kt
SIGMETs :     Misc.  Thunderstorms  Icing  Turbulence  Mountain Waves  Volcanic Ashes






- Airport Elevation : 74 ft
- IATA code : MRS


LFML - Marseille / Marignane

CURRENT METAR :
  • 250730Z AUTO 00000KT 4100 BR OVC035 03/02 Q1033 BECMG 6000 NSW

EXPIRED METARs :
  • 250700Z AUTO 00000KT 3200 BR FEW027 BKN035 03/03 Q1033 BECMG 6000 NSW
  • 250630Z AUTO 00000KT 4400 BR FEW023 BKN034 02/02 Q1033 BECMG 6000 NSW
  • 250600Z AUTO 00000KT 4900 BR SCT024 BKN033 03/03 Q1033 TEMPO 2000 BR
  • 250530Z AUTO VRB02KT 5000 BR FEW023 BKN034 03/03 Q1033 TEMPO 2000 BR
  • 250500Z AUTO 01001KT 5000 BR FEW025 BKN034 03/02 Q1032 TEMPO 2000 BR

TAF TAF LFML
Valid from the 25 at 03:00 until the 26 at 09:00 UTC


250200Z 2503/2609 VRB03KT 6000 SCT020 TX11/2514Z TN01/2503Z
TEMPO 2503/2508 2000 BR
BECMG 2523/2601 3000 BR
PROB40
TEMPO 2601/2609 0300 FG VV///
PROB30
TEMPO 2603/2609 32010KT BKN003
ATIS : +33 4 42 31 15 15



MET'MAP, your aeronautical weather chart ! - Copyright ORBIFLY December 2007 - Disclaimer

ORBIFLY MET'MAP TEAM :

Programming & Development : Alexandra Zaïnal
Original concept : Baudouin d'Aumeries
Technical & hardware support : Manuel Goepfert
Assistance : Marc-Olivier Méhu

Contact : metmap@orbifly.com




SOURCES & CREDITS :

   NOAA